createdAt,value
2022-08-01T00:00:05.649Z,6.68
2022-08-01T00:02:32.607Z,6.10
2022-08-01T00:04:59.351Z,5.82
2022-08-01T00:07:25.850Z,4.72
2022-08-01T00:09:52.642Z,5.95
2022-08-01T00:12:19.164Z,5.15
2022-08-01T00:14:45.710Z,6.95
2022-08-01T00:17:12.221Z,7.38
2022-08-01T00:19:41.835Z,8.43
2022-08-01T00:22:09.118Z,5.57
2022-08-01T00:24:35.846Z,7.15
2022-08-01T00:27:02.462Z,6.10
2022-08-01T00:30:09.701Z,6.05
2022-08-01T00:32:15.719Z,5.57
2022-08-01T00:34:42.342Z,5.38
2022-08-01T00:37:08.879Z,6.40
2022-08-01T00:39:36.157Z,5.75
2022-08-01T00:42:10.381Z,5.32
2022-08-01T00:44:37.015Z,6.95
2022-08-01T00:47:04.847Z,6.43
2022-08-01T00:49:31.721Z,7.32
2022-08-01T00:51:59.322Z,6.07
2022-08-01T00:54:27.310Z,5.32
2022-08-01T00:56:54.966Z,5.55
2022-08-01T00:59:25.791Z,7.85
2022-08-01T01:01:52.789Z,4.82
2022-08-01T01:04:20.539Z,5.93
2022-08-01T01:07:11.783Z,6.97
2022-08-01T01:09:41.167Z,4.78
2022-08-01T01:12:25.786Z,6.32
2022-08-01T01:15:16.936Z,6.28
2022-08-01T01:17:53.919Z,6.35
2022-08-01T01:20:24.911Z,7.40
2022-08-01T01:22:54.492Z,8.25
2022-08-01T01:25:33.497Z,6.50
2022-08-01T01:28:05.943Z,6.65
2022-08-01T01:30:34.100Z,5.97
2022-08-01T01:33:03.613Z,6.43
2022-08-01T01:35:35.636Z,5.22
2022-08-01T01:38:29.603Z,5.18
2022-08-01T01:40:57.098Z,6.00
2022-08-01T01:43:28.948Z,5.78
2022-08-01T01:46:01.459Z,8.93
2022-08-01T01:48:28.882Z,6.88
2022-08-01T01:50:57.552Z,6.80
2022-08-01T01:53:24.465Z,6.05
2022-08-01T01:55:53.420Z,5.90
2022-08-01T01:58:21.358Z,5.72
2022-08-01T02:00:49.339Z,7.32
2022-08-01T02:03:18.947Z,5.20
2022-08-01T02:05:45.775Z,8.45
2022-08-01T02:08:15.744Z,4.90
2022-08-01T02:10:42.603Z,6.43
2022-08-01T02:13:09.717Z,5.70
2022-08-01T02:15:59.685Z,7.05
2022-08-01T02:18:26.750Z,7.78
2022-08-01T02:20:54.737Z,7.38
2022-08-01T02:23:22.573Z,8.73
2022-08-01T02:26:08.600Z,6.93
2022-08-01T02:28:44.615Z,7.68
2022-08-01T02:31:15.307Z,5.13
2022-08-01T02:33:44.972Z,6.55
2022-08-01T02:36:31.420Z,9.40
2022-08-01T02:39:01.116Z,7.97
2022-08-01T02:41:28.284Z,6.07
2022-08-01T02:44:00.622Z,7.47
2022-08-01T02:46:33.622Z,6.88
2022-08-01T02:49:02.220Z,5.97
2022-08-01T02:51:29.722Z,7.20
2022-08-01T02:53:57.718Z,5.25
2022-08-01T02:56:25.009Z,7.75
2022-08-01T02:58:52.110Z,4.85
2022-08-01T03:01:20.957Z,6.45
2022-08-01T03:03:47.593Z,5.97
2022-08-01T03:06:14.304Z,6.57
2022-08-01T03:08:41.769Z,7.70
2022-08-01T03:11:09.243Z,8.00
2022-08-01T03:13:36.274Z,8.60
2022-08-01T03:16:03.385Z,8.02
2022-08-01T03:18:30.647Z,7.80
2022-08-01T03:20:57.924Z,6.32
2022-08-01T03:23:37.561Z,5.82
2022-08-01T03:26:06.134Z,5.95
2022-08-01T03:28:32.895Z,6.30
2022-08-01T03:31:00.664Z,6.85
2022-08-01T03:33:27.539Z,7.75
2022-08-01T03:35:55.477Z,8.70
2022-08-01T03:38:27.439Z,6.95
2022-08-01T03:41:00.604Z,7.30
2022-08-01T03:43:30.618Z,7.47
2022-08-01T03:46:01.092Z,10.93
2022-08-01T03:48:30.707Z,7.63
2022-08-01T03:50:59.095Z,7.43
2022-08-01T03:53:30.820Z,7.50
2022-08-01T03:55:59.982Z,8.40
2022-08-01T03:58:26.825Z,9.85
2022-08-01T04:00:53.503Z,7.85
2022-08-01T04:03:20.334Z,9.20
2022-08-01T04:05:46.883Z,11.38
2022-08-01T04:08:13.429Z,5.80
2022-08-01T04:10:40.093Z,6.70
2022-08-01T04:13:06.754Z,6.00
2022-08-01T04:15:33.367Z,7.18
2022-08-01T04:17:59.945Z,7.53
2022-08-01T04:20:26.541Z,8.07
2022-08-01T04:22:53.242Z,6.95
2022-08-01T04:25:30.815Z,9.10
2022-08-01T04:27:58.216Z,8.55
2022-08-01T04:30:30.949Z,7.18
2022-08-01T04:32:58.821Z,7.03
2022-08-01T04:36:03.303Z,7.90
2022-08-01T04:38:18.000Z,8.82
2022-08-01T04:40:48.831Z,12.35
2022-08-01T04:43:15.675Z,12.10
2022-08-01T04:45:44.570Z,8.60
2022-08-01T04:48:11.158Z,7.40
2022-08-01T04:50:37.878Z,8.55
2022-08-01T04:53:04.868Z,9.10
2022-08-01T04:55:32.294Z,12.32
2022-08-01T04:57:58.857Z,11.23
2022-08-01T05:00:26.992Z,13.82
2022-08-01T05:02:53.502Z,9.82
2022-08-01T05:05:21.422Z,9.98
2022-08-01T05:07:48.040Z,12.30
2022-08-01T05:10:14.722Z,10.80
2022-08-01T05:12:41.266Z,8.90
2022-08-01T05:15:13.262Z,10.93
2022-08-01T05:17:43.260Z,9.68
2022-08-01T05:20:10.964Z,10.90
2022-08-01T05:22:37.496Z,9.38
2022-08-01T05:25:05.901Z,11.32
2022-08-01T05:27:33.434Z,10.35
2022-08-01T05:30:00.557Z,11.18
2022-08-01T05:32:27.084Z,10.38
2022-08-01T05:34:53.659Z,9.32
2022-08-01T05:37:20.405Z,14.07
2022-08-01T05:39:46.931Z,9.52
2022-08-01T05:42:13.474Z,12.52
2022-08-01T05:44:39.973Z,9.15
2022-08-01T05:47:06.794Z,11.10
2022-08-01T05:49:33.347Z,9.75
2022-08-01T05:52:01.944Z,12.05
2022-08-01T05:54:28.890Z,12.75
2022-08-01T05:57:00.400Z,9.02
2022-08-01T05:59:27.428Z,11.38
2022-08-01T06:01:54.026Z,9.85
2022-08-01T06:04:20.576Z,9.30
2022-08-01T06:06:47.300Z,8.65
2022-08-01T06:09:13.852Z,9.82
2022-08-01T06:11:40.771Z,8.02
2022-08-01T06:14:07.432Z,9.25
2022-08-01T06:16:34.081Z,10.02
2022-08-01T06:19:01.092Z,9.60
2022-08-01T06:21:27.786Z,8.93
2022-08-01T06:23:54.322Z,9.32
2022-08-01T06:26:21.268Z,10.23
2022-08-01T06:28:47.885Z,8.05
2022-08-01T06:31:15.641Z,9.30
2022-08-01T06:33:42.275Z,9.93
2022-08-01T06:36:10.144Z,8.57
2022-08-01T06:38:36.739Z,6.78
2022-08-01T06:41:03.345Z,10.88
2022-08-01T06:43:29.877Z,8.40
2022-08-01T06:45:56.387Z,8.32
2022-08-01T06:48:23.746Z,8.43
2022-08-01T06:50:50.307Z,6.80
2022-08-01T06:53:16.798Z,6.72
2022-08-01T06:55:43.284Z,7.20
2022-08-01T06:58:09.849Z,8.07
2022-08-01T07:00:36.629Z,7.38
2022-08-01T07:03:03.182Z,5.85
2022-08-01T07:05:31.940Z,8.27
2022-08-01T07:10:25.429Z,6.20
2022-08-01T07:12:52.080Z,6.75
2022-08-01T07:15:21.536Z,15.27
2022-08-01T07:17:48.078Z,10.30
2022-08-01T07:20:16.604Z,6.32
2022-08-01T07:22:43.842Z,8.43
2022-08-01T07:25:14.086Z,6.55
2022-08-01T07:27:40.616Z,6.15
2022-08-01T07:30:07.706Z,7.55
2022-08-01T07:32:35.761Z,5.10
2022-08-01T07:35:03.606Z,6.28
2022-08-01T07:37:48.153Z,5.35
2022-08-01T07:40:16.587Z,5.85
2022-08-01T07:42:44.399Z,7.55
2022-08-01T07:45:12.276Z,6.55
2022-08-01T07:47:38.861Z,10.48
2022-08-01T07:50:07.253Z,6.47
2022-08-01T07:52:33.862Z,7.55
2022-08-01T07:55:00.371Z,11.75
2022-08-01T07:57:27.075Z,5.80
2022-08-01T07:59:53.682Z,6.00
2022-08-01T08:02:20.321Z,6.18
2022-08-01T08:04:49.118Z,4.80
2022-08-01T08:07:16.470Z,5.90
2022-08-01T08:09:43.094Z,5.20
2022-08-01T08:12:10.553Z,5.20
2022-08-01T08:14:37.308Z,5.95
2022-08-01T08:17:04.364Z,6.57
2022-08-01T08:19:38.641Z,5.93
2022-08-01T08:22:09.902Z,6.35
2022-08-01T08:24:46.499Z,5.78
2022-08-01T08:27:13.993Z,8.98
2022-08-01T08:29:40.535Z,5.68
2022-08-01T08:32:07.869Z,7.28
2022-08-01T08:34:35.111Z,5.10
2022-08-01T08:37:01.634Z,7.53
2022-08-01T08:39:30.483Z,7.65
2022-08-01T08:42:07.852Z,5.15
2022-08-01T08:44:34.569Z,4.55
2022-08-01T08:47:09.347Z,5.45
2022-08-01T08:49:36.670Z,5.50
2022-08-01T08:52:04.537Z,6.97
2022-08-01T08:54:32.007Z,8.07
2022-08-01T08:57:00.129Z,8.57
2022-08-01T08:59:27.343Z,6.78
2022-08-01T09:01:54.007Z,7.82
2022-08-01T09:04:23.507Z,10.23
2022-08-01T09:06:53.460Z,6.50
2022-08-01T09:09:20.058Z,6.68
2022-08-01T09:11:56.632Z,5.90
2022-08-01T09:14:28.054Z,4.72
2022-08-01T09:17:11.852Z,6.10
2022-08-01T09:19:41.801Z,5.07
2022-08-01T09:22:10.789Z,5.18
2022-08-01T09:24:38.768Z,6.72
2022-08-01T09:27:22.829Z,5.78
2022-08-01T09:30:00.639Z,5.80
2022-08-01T09:32:34.335Z,5.95
2022-08-01T09:35:24.479Z,4.63
2022-08-01T09:38:17.912Z,5.55
2022-08-01T09:41:02.006Z,4.13
2022-08-01T09:43:31.538Z,4.82
2022-08-01T09:45:58.771Z,3.45
2022-08-01T09:48:28.737Z,2.92
2022-08-01T09:51:04.332Z,5.30
2022-08-01T09:53:47.383Z,7.93
2022-08-01T09:56:18.829Z,2.67
2022-08-01T09:59:02.033Z,7.68
2022-08-01T10:01:49.968Z,5.00
2022-08-01T10:04:21.198Z,5.03
2022-08-01T10:06:57.108Z,3.28
2022-08-01T10:09:36.049Z,4.43
2022-08-01T10:12:07.598Z,3.35
2022-08-01T10:14:37.491Z,3.60
2022-08-01T10:17:05.727Z,2.88
2022-08-01T10:19:33.608Z,3.45
2022-08-01T10:22:02.553Z,6.03
2022-08-01T10:24:31.043Z,3.28
2022-08-01T10:27:05.823Z,4.30
2022-08-01T10:30:05.799Z,2.83
2022-08-01T10:32:36.543Z,6.82
2022-08-01T10:37:51.962Z,5.65
2022-08-01T10:40:35.370Z,5.70
2022-08-01T10:43:02.262Z,5.72
2022-08-01T10:45:30.298Z,6.57
2022-08-01T10:48:05.399Z,6.68
2022-08-01T10:50:39.543Z,4.50
2022-08-01T10:55:53.059Z,7.50
2022-08-01T10:58:42.595Z,3.65
2022-08-01T11:01:27.971Z,4.85
2022-08-01T11:04:01.271Z,6.03
2022-08-01T11:06:34.078Z,6.07
2022-08-01T11:09:36.395Z,3.42
2022-08-01T11:12:23.222Z,4.07
2022-08-01T11:15:00.444Z,4.45
2022-08-01T11:17:49.110Z,5.05
2022-08-01T11:20:26.773Z,3.05
2022-08-01T11:23:00.178Z,3.15
2022-08-01T11:26:03.414Z,4.47
2022-08-01T11:28:34.962Z,4.20
2022-08-01T11:31:11.910Z,4.47
2022-08-01T11:33:45.782Z,4.45
2022-08-01T11:36:14.649Z,5.55
2022-08-01T11:38:43.421Z,3.63
2022-08-01T11:41:38.071Z,5.30
2022-08-01T11:44:20.911Z,4.90
2022-08-01T11:47:08.874Z,2.33
2022-08-01T11:49:45.243Z,5.00
2022-08-01T11:52:20.901Z,3.80
2022-08-01T11:54:55.571Z,3.00
2022-08-01T11:57:33.992Z,4.35
2022-08-01T12:00:16.697Z,3.00
2022-08-01T12:02:46.111Z,2.97
2022-08-01T12:05:21.475Z,2.28
2022-08-01T12:07:53.612Z,3.78
2022-08-01T12:10:22.176Z,2.92
2022-08-01T12:12:54.211Z,4.70
2022-08-01T12:15:23.627Z,3.75
2022-08-01T12:17:58.920Z,3.85
2022-08-01T12:20:32.077Z,3.30
2022-08-01T12:23:01.249Z,3.85
2022-08-01T12:25:27.987Z,6.20
2022-08-01T12:27:56.722Z,4.80
2022-08-01T12:30:24.843Z,4.95
2022-08-01T12:32:52.381Z,6.20
2022-08-01T12:35:24.129Z,3.17
2022-08-01T12:37:52.746Z,3.85
2022-08-01T12:40:29.245Z,3.40
2022-08-01T12:42:57.689Z,2.60
2022-08-01T12:45:26.857Z,3.08
2022-08-01T12:47:54.415Z,2.70
2022-08-01T12:50:22.457Z,4.88
2022-08-01T12:52:50.607Z,3.63
2022-08-01T12:55:18.633Z,3.17
2022-08-01T12:57:51.779Z,6.38
2022-08-01T13:00:27.854Z,4.03
2022-08-01T13:03:09.568Z,2.47
2022-08-01T13:05:52.415Z,5.57
2022-08-01T13:08:20.838Z,2.03
2022-08-01T13:10:48.174Z,3.03
2022-08-01T13:13:28.302Z,4.80
2022-08-01T13:16:05.481Z,3.88
2022-08-01T13:18:33.494Z,2.63
2022-08-01T13:21:13.516Z,2.63
2022-08-01T13:24:01.660Z,3.92
2022-08-01T13:26:53.199Z,4.18
2022-08-01T13:29:21.754Z,5.07
2022-08-01T13:31:48.947Z,4.80
2022-08-01T13:34:16.342Z,4.72
2022-08-01T13:36:48.751Z,2.85
2022-08-01T13:39:34.918Z,2.40
2022-08-01T13:42:01.568Z,4.30
2022-08-01T13:44:28.959Z,2.80
2022-08-01T13:46:56.953Z,5.35
2022-08-01T13:49:24.280Z,5.43
2022-08-01T13:51:51.614Z,5.28
2022-08-01T13:54:20.826Z,4.68
2022-08-01T13:56:47.379Z,4.18
2022-08-01T13:59:14.263Z,6.38
2022-08-01T14:01:41.018Z,7.53
2022-08-01T14:04:07.693Z,2.53
2022-08-01T14:06:35.972Z,4.82
2022-08-01T14:09:04.160Z,7.25
2022-08-01T14:11:45.924Z,3.58
2022-08-01T14:14:13.432Z,4.57
2022-08-01T14:16:40.412Z,3.65
2022-08-01T14:19:07.192Z,4.93
2022-08-01T14:21:34.205Z,4.28
2022-08-01T14:24:00.749Z,3.92
2022-08-01T14:26:27.246Z,3.22
2022-08-01T14:28:53.754Z,2.40
2022-08-01T14:31:20.330Z,5.65
2022-08-01T14:33:46.978Z,3.28
2022-08-01T14:36:30.546Z,3.90
2022-08-01T14:39:00.481Z,4.60
2022-08-01T14:41:28.346Z,6.80
2022-08-01T14:43:55.263Z,4.55
2022-08-01T14:46:21.806Z,5.05
2022-08-01T14:48:48.549Z,4.97
2022-08-01T14:51:15.903Z,5.18
2022-08-01T14:53:44.894Z,5.18
2022-08-01T14:56:18.183Z,3.88
2022-08-01T14:58:44.927Z,7.57
2022-08-01T15:01:11.633Z,3.92
2022-08-01T15:03:38.365Z,3.22
2022-08-01T15:06:07.177Z,7.57
2022-08-01T15:08:33.683Z,4.47
2022-08-01T15:11:01.971Z,4.78
2022-08-01T15:13:28.558Z,3.00
2022-08-01T15:15:55.116Z,5.75
2022-08-01T15:18:27.971Z,2.88
2022-08-01T15:20:54.526Z,4.95
2022-08-01T15:23:21.933Z,5.88
2022-08-01T15:25:48.522Z,3.65
2022-08-01T15:28:15.501Z,6.72
2022-08-01T15:30:42.109Z,5.43
2022-08-01T15:33:08.999Z,6.07
2022-08-01T15:35:35.724Z,4.63
2022-08-01T15:38:02.428Z,4.47
2022-08-01T15:40:29.451Z,3.67
2022-08-01T15:42:56.353Z,3.95
2022-08-01T15:45:46.507Z,6.63
2022-08-01T15:48:09.851Z,4.15
2022-08-01T15:50:38.601Z,3.22
2022-08-01T15:53:05.747Z,3.38
2022-08-01T15:55:32.335Z,4.90
2022-08-01T15:57:58.903Z,3.13
2022-08-01T16:00:25.682Z,3.53
2022-08-01T16:02:59.777Z,5.75
2022-08-01T16:05:26.471Z,5.30
2022-08-01T16:07:59.686Z,3.78
2022-08-01T16:10:30.110Z,2.85
2022-08-01T16:12:57.331Z,3.50
2022-08-01T16:15:33.267Z,3.75
2022-08-01T16:18:07.684Z,1.95
2022-08-01T16:20:35.179Z,2.13
2022-08-01T16:23:02.245Z,4.93
2022-08-01T16:25:29.020Z,3.35
2022-08-01T16:27:55.586Z,2.90
2022-08-01T16:30:22.172Z,3.58
2022-08-01T16:32:57.101Z,2.15
2022-08-01T16:35:36.244Z,2.63
2022-08-01T16:38:04.556Z,5.00
2022-08-01T16:40:31.369Z,4.35
2022-08-01T16:43:14.020Z,3.08
2022-08-01T16:45:42.954Z,3.67
2022-08-01T16:48:12.112Z,3.70
2022-08-01T16:50:39.312Z,3.08
2022-08-01T16:53:06.256Z,4.20
2022-08-01T16:55:49.646Z,3.33
2022-08-01T16:58:27.142Z,3.05
2022-08-01T17:00:56.576Z,5.00
2022-08-01T17:03:46.593Z,2.92
2022-08-01T17:06:11.407Z,2.20
2022-08-01T17:08:46.702Z,3.28
2022-08-01T17:11:17.546Z,3.47
2022-08-01T17:13:48.793Z,2.78
2022-08-01T17:16:23.444Z,3.15
2022-08-01T17:18:50.549Z,2.72
2022-08-01T17:21:21.179Z,3.97
2022-08-01T17:23:48.655Z,5.90
2022-08-01T17:26:20.958Z,2.22
2022-08-01T17:28:50.688Z,3.97
2022-08-01T17:31:17.793Z,2.13
2022-08-01T17:33:54.943Z,2.25
2022-08-01T17:36:22.401Z,2.78
2022-08-01T17:38:49.481Z,3.13
2022-08-01T17:41:17.009Z,4.90
2022-08-01T17:43:44.467Z,3.53
2022-08-01T17:46:11.513Z,2.75
2022-08-01T17:48:41.451Z,2.72
2022-08-01T17:51:08.969Z,4.70
2022-08-01T17:53:35.905Z,3.75
2022-08-01T17:56:10.935Z,3.58
2022-08-01T17:58:50.469Z,3.45
2022-08-01T18:01:19.138Z,1.92
2022-08-01T18:03:46.655Z,5.72
2022-08-01T18:06:15.897Z,3.78
2022-08-01T18:08:43.847Z,3.92
2022-08-01T18:11:13.199Z,3.72
2022-08-01T18:16:12.690Z,3.95
2022-08-01T18:18:40.984Z,6.40
2022-08-01T18:21:08.670Z,3.70
2022-08-01T18:23:39.062Z,2.95
2022-08-01T18:26:09.564Z,2.47
2022-08-01T18:28:41.911Z,4.00
2022-08-01T18:31:14.194Z,6.43
2022-08-01T18:33:41.459Z,6.85
2022-08-01T18:36:09.765Z,5.75
2022-08-01T18:38:44.846Z,4.97
2022-08-01T18:41:14.158Z,2.80
2022-08-01T18:43:41.249Z,3.08
2022-08-01T18:46:07.923Z,3.38
2022-08-01T18:48:41.152Z,5.70
2022-08-01T18:51:09.331Z,3.10
2022-08-01T18:53:42.950Z,3.97
2022-08-01T18:56:14.271Z,3.35
2022-08-01T18:58:42.596Z,2.95
2022-08-01T19:01:09.806Z,2.20
2022-08-01T19:03:42.484Z,3.78
2022-08-01T19:06:10.281Z,4.75
2022-08-01T19:08:40.826Z,4.00
2022-08-01T19:11:07.831Z,3.33
2022-08-01T19:13:37.056Z,4.95
2022-08-01T19:16:04.313Z,2.60
2022-08-01T19:18:32.453Z,3.63
2022-08-01T19:21:02.797Z,2.97
2022-08-01T19:23:48.093Z,2.00
2022-08-01T19:26:18.945Z,3.10
2022-08-01T19:28:47.708Z,3.28
2022-08-01T19:31:17.765Z,3.70
2022-08-01T19:33:46.911Z,3.30
2022-08-01T19:36:22.280Z,3.85
2022-08-01T19:38:49.820Z,3.47
2022-08-01T19:41:18.093Z,3.53
2022-08-01T19:43:47.134Z,3.55
2022-08-01T19:46:17.251Z,3.80
2022-08-01T19:48:49.868Z,3.85
2022-08-01T19:53:55.303Z,5.43
2022-08-01T19:56:26.487Z,3.63
2022-08-01T19:59:00.344Z,3.25
2022-08-01T20:01:27.678Z,3.10
2022-08-01T20:03:55.203Z,3.97
2022-08-01T20:06:24.405Z,5.60
2022-08-01T20:08:54.571Z,3.28
2022-08-01T20:11:22.191Z,3.33
2022-08-01T20:13:50.312Z,3.75
2022-08-01T20:16:17.322Z,3.53
2022-08-01T20:18:44.647Z,4.72
2022-08-01T20:21:12.533Z,3.28
2022-08-01T20:23:40.718Z,3.72
2022-08-01T20:26:08.573Z,4.55
2022-08-01T20:28:39.844Z,7.25
2022-08-01T20:31:08.306Z,4.35
2022-08-01T20:33:40.729Z,6.28
2022-08-01T20:36:12.291Z,4.55
2022-08-01T20:38:54.255Z,5.18
2022-08-01T20:41:25.909Z,3.85
2022-08-01T20:43:57.577Z,2.40
2022-08-01T20:46:27.789Z,5.35
2022-08-01T20:48:56.013Z,3.20
2022-08-01T20:51:26.969Z,2.83
2022-08-01T20:53:55.454Z,3.50
2022-08-01T20:56:21.977Z,3.08
2022-08-01T20:58:58.764Z,2.45
2022-08-01T21:01:30.704Z,5.63
2022-08-01T21:04:01.673Z,3.85
2022-08-01T21:06:54.968Z,3.35
2022-08-01T21:09:24.080Z,3.60
2022-08-01T21:11:58.230Z,2.53
2022-08-01T21:14:44.505Z,4.80
2022-08-01T21:17:24.580Z,4.63
2022-08-01T21:19:54.989Z,3.65
2022-08-01T21:22:31.709Z,5.95
2022-08-01T21:25:06.959Z,2.65
2022-08-01T21:27:35.823Z,3.88
2022-08-01T21:30:06.377Z,5.03
2022-08-01T21:32:34.909Z,4.80
2022-08-01T21:35:03.281Z,3.67
2022-08-01T21:37:31.398Z,4.18
2022-08-01T21:40:00.193Z,4.75
2022-08-01T21:42:38.386Z,3.13
2022-08-01T21:45:06.660Z,4.70
2022-08-01T21:47:33.982Z,4.18
2022-08-01T21:50:02.574Z,3.10
2022-08-01T21:52:43.469Z,3.75
2022-08-01T21:55:22.603Z,4.78
2022-08-01T21:58:28.382Z,4.75
2022-08-01T22:01:30.012Z,4.05
2022-08-01T22:04:00.083Z,4.63
2022-08-01T22:06:28.696Z,2.63
2022-08-01T22:09:01.553Z,4.82
2022-08-01T22:11:29.752Z,3.20
2022-08-01T22:13:58.507Z,8.25
2022-08-01T22:18:53.343Z,5.88
2022-08-01T22:21:20.281Z,5.95
2022-08-01T22:23:47.855Z,3.80
2022-08-01T22:26:14.422Z,6.90
2022-08-01T22:28:41.013Z,4.50
2022-08-01T22:31:07.757Z,5.45
2022-08-01T22:33:36.520Z,5.18
2022-08-01T22:38:30.837Z,3.10
2022-08-01T22:41:03.518Z,5.75
2022-08-01T22:43:39.729Z,4.13
2022-08-01T22:46:24.444Z,7.22
2022-08-01T22:49:14.258Z,4.53
2022-08-01T22:51:55.302Z,5.22
2022-08-01T22:54:51.198Z,3.88
2022-08-01T22:57:27.173Z,7.85
2022-08-01T23:00:00.345Z,3.63
2022-08-01T23:02:29.135Z,3.78
2022-08-01T23:05:02.020Z,4.68
2022-08-01T23:07:34.013Z,5.50
2022-08-01T23:10:05.043Z,7.85
2022-08-01T23:12:32.012Z,6.43
2022-08-01T23:15:00.205Z,7.53
2022-08-01T23:17:29.735Z,5.85
2022-08-01T23:20:00.901Z,6.57
2022-08-01T23:22:31.047Z,4.95
2022-08-01T23:25:04.703Z,4.53
2022-08-01T23:28:04.137Z,3.97
2022-08-01T23:30:27.185Z,7.18
2022-08-01T23:32:54.354Z,6.28
2022-08-01T23:35:21.000Z,8.52
2022-08-01T23:37:50.852Z,5.00
2022-08-01T23:40:18.236Z,6.22
2022-08-01T23:42:44.870Z,6.30
2022-08-01T23:45:11.416Z,5.75
2022-08-01T23:47:38.083Z,6.30
2022-08-01T23:50:05.135Z,6.18
2022-08-01T23:52:32.473Z,5.32
2022-08-01T23:57:41.615Z,5.18
